Elger Bay, Washington
Current Conditions -  °F | °C
As of 10:55 PM on Friday 24 Oct 2014 (Local Time) from KAWO Reporting Station
Overcast Overcast  
Wind Chill: 50°   Ceiling: 5000
Heat Index: 50°   Visibility: 9mi
Dew Point: 46°   Wind: 7mph
Humidity: 87%   Direction: 350°N
Pressure: 29.84"   Gusts: NA
Location:  48.2145°N, 122.297°W
Report Text: KAWO 250555Z AUTO 35006KT 9SM BKN050 OVC065 10/08 A2984 RMK AO1 P0002 60004 10130 20100 57014
Loading
Personal Weather Stations






























Interactive Weather Map New forecast layout! Learn more

10-Day Weather Forecast

Advertisements
Track Severe Weather on mobile